createdAt,value
2017-05-16T04:26:15.683Z,966.82
2017-05-16T04:27:17.489Z,966.89
2017-05-16T04:28:17.016Z,966.85
2017-05-16T04:29:13.561Z,966.83
2017-05-16T04:30:14.118Z,966.83
2017-05-16T04:31:12.205Z,966.80
2017-05-16T04:32:14.443Z,966.82
2017-05-16T04:33:14.066Z,966.83
2017-05-16T04:34:14.134Z,966.83
2017-05-16T04:35:13.297Z,966.84
2017-05-16T04:36:13.919Z,966.86
2017-05-16T04:37:13.196Z,966.83
2017-05-16T04:38:13.860Z,966.86
2017-05-16T04:39:14.065Z,966.84
2017-05-16T04:40:13.288Z,966.83
2017-05-16T04:41:13.603Z,966.85
2017-05-16T04:42:13.757Z,966.91
2017-05-16T04:43:18.964Z,966.82
2017-05-16T04:44:13.384Z,966.83
2017-05-16T04:45:17.029Z,966.88
2017-05-16T04:46:15.212Z,966.89
2017-05-16T04:47:13.609Z,966.90
2017-05-16T04:48:13.002Z,966.87
2017-05-16T04:49:14.880Z,966.88
2017-05-16T04:50:13.287Z,966.91
2017-05-16T04:51:15.970Z,966.89
2017-05-16T04:52:14.598Z,966.93
2017-05-16T04:53:13.331Z,966.92
2017-05-16T04:54:14.813Z,967.00
2017-05-16T04:55:13.218Z,966.93
2017-05-16T04:56:13.359Z,966.95
2017-05-16T04:57:13.682Z,966.96
2017-05-16T04:58:13.322Z,966.96
2017-05-16T04:59:15.470Z,966.98
2017-05-16T05:00:12.888Z,966.98
2017-05-16T05:01:16.147Z,966.95
2017-05-16T05:02:14.103Z,966.99
2017-05-16T05:03:15.745Z,966.96
2017-05-16T05:04:13.249Z,966.95
2017-05-16T05:05:13.438Z,966.91
2017-05-16T05:06:13.850Z,966.99
2017-05-16T05:07:13.762Z,966.97
2017-05-16T05:08:13.356Z,966.98
2017-05-16T05:09:13.833Z,966.93
2017-05-16T05:10:13.921Z,966.99
2017-05-16T05:11:13.321Z,967.03
2017-05-16T05:12:15.151Z,967.03
2017-05-16T05:13:15.403Z,967.05
2017-05-16T05:14:12.958Z,967.08
2017-05-16T05:15:13.337Z,967.09
2017-05-16T05:16:14.823Z,967.10
2017-05-16T05:17:13.376Z,967.13
2017-05-16T05:18:13.612Z,967.11
2017-05-16T05:19:13.907Z,967.16
2017-05-16T05:20:13.511Z,967.14
2017-05-16T05:21:16.325Z,967.17
2017-05-16T05:22:14.955Z,967.14
2017-05-16T05:23:14.397Z,967.16
2017-05-16T05:24:15.270Z,967.18
2017-05-16T05:25:13.395Z,967.18
2017-05-16T05:26:16.941Z,967.17
2017-05-16T05:27:13.606Z,967.18
2017-05-16T05:28:12.733Z,967.16
2017-05-16T05:29:13.390Z,967.19
2017-05-16T05:30:14.597Z,967.18
2017-05-16T05:31:13.751Z,967.15
2017-05-16T05:32:13.161Z,967.21
2017-05-16T05:33:15.362Z,967.21
2017-05-16T05:34:13.302Z,967.20
2017-05-16T05:35:13.898Z,967.23
2017-05-16T05:36:13.197Z,967.19
2017-05-16T05:37:13.998Z,967.21
2017-05-16T05:38:13.861Z,967.24
2017-05-16T05:39:13.901Z,967.23
2017-05-16T05:40:13.958Z,967.24
2017-05-16T05:41:13.358Z,967.22
2017-05-16T05:42:14.175Z,967.21
2017-05-16T05:43:13.858Z,967.26
2017-05-16T05:44:14.264Z,967.27
2017-05-16T05:45:14.979Z,967.23
2017-05-16T05:46:11.832Z,967.22
2017-05-16T05:47:14.473Z,967.26
2017-05-16T05:48:13.301Z,967.28
2017-05-16T05:49:13.694Z,967.24
2017-05-16T05:50:13.562Z,967.27
2017-05-16T05:51:13.004Z,967.25
2017-05-16T05:52:13.912Z,967.28
2017-05-16T05:53:13.825Z,967.27
2017-05-16T05:54:14.601Z,967.24
2017-05-16T05:55:12.955Z,967.26
2017-05-16T05:56:13.920Z,967.28
2017-05-16T05:57:16.233Z,967.25
2017-05-16T05:58:13.408Z,967.24
2017-05-16T05:59:13.905Z,967.26
2017-05-16T06:00:13.733Z,967.28
2017-05-16T06:01:12.959Z,967.32
2017-05-16T06:02:13.238Z,967.30
2017-05-16T06:03:13.505Z,967.27
2017-05-16T06:04:13.742Z,967.30
2017-05-16T06:05:11.243Z,967.29
2017-05-16T06:06:13.898Z,967.29
2017-05-16T06:07:13.407Z,967.27
2017-05-16T06:08:15.620Z,967.31
2017-05-16T06:09:14.414Z,967.27
2017-05-16T06:10:13.361Z,967.28
2017-05-16T06:11:13.758Z,967.25
2017-05-16T06:12:12.945Z,967.26
2017-05-16T06:13:10.409Z,967.25
2017-05-16T06:14:10.893Z,967.28
2017-05-16T06:15:13.858Z,967.27
2017-05-16T06:16:13.945Z,967.21
2017-05-16T06:17:13.968Z,967.26
2017-05-16T06:18:13.894Z,967.24
2017-05-16T06:19:10.688Z,967.29
2017-05-16T06:20:13.936Z,967.28
2017-05-16T06:21:11.086Z,967.27
2017-05-16T06:22:13.036Z,967.24
2017-05-16T06:23:14.351Z,967.26
2017-05-16T06:24:15.366Z,967.26
2017-05-16T06:25:15.207Z,967.29
2017-05-16T06:26:14.954Z,967.28
2017-05-16T06:27:14.426Z,967.26
2017-05-16T06:28:11.168Z,967.27
2017-05-16T06:29:13.790Z,967.28
2017-05-16T06:30:17.133Z,967.33
2017-05-16T06:31:13.876Z,967.30
2017-05-16T06:32:12.374Z,967.30
2017-05-16T06:33:13.167Z,967.27
2017-05-16T06:34:13.277Z,967.27
2017-05-16T06:35:14.978Z,967.29
2017-05-16T06:36:13.330Z,967.31
2017-05-16T06:37:14.021Z,967.30
2017-05-16T06:38:13.441Z,967.31
2017-05-16T06:39:14.019Z,967.31
2017-05-16T06:40:13.269Z,967.31
2017-05-16T06:41:11.860Z,967.32
2017-05-16T06:42:13.766Z,967.34
2017-05-16T06:43:13.005Z,967.34
2017-05-16T06:44:13.542Z,967.32
2017-05-16T06:45:15.270Z,967.32
2017-05-16T06:46:13.827Z,967.32
2017-05-16T06:47:14.087Z,967.30
2017-05-16T06:48:13.200Z,967.32
2017-05-16T06:49:13.534Z,967.33
2017-05-16T06:50:14.900Z,967.33
2017-05-16T06:51:13.338Z,967.36
2017-05-16T06:52:11.218Z,967.40
2017-05-16T06:53:13.295Z,967.40
2017-05-16T06:54:15.301Z,967.43
2017-05-16T06:55:14.890Z,967.42
2017-05-16T06:56:13.414Z,967.40
2017-05-16T06:57:14.911Z,967.43
2017-05-16T06:58:13.142Z,967.45
2017-05-16T06:59:13.508Z,967.43
2017-05-16T07:00:13.801Z,967.39
2017-05-16T07:01:13.146Z,967.37
2017-05-16T07:02:13.883Z,967.31
2017-05-16T07:03:13.165Z,967.36
2017-05-16T07:04:13.363Z,967.37
2017-05-16T07:05:13.883Z,967.34
2017-05-16T07:06:13.316Z,967.34
2017-05-16T07:07:13.828Z,967.34
2017-05-16T07:08:11.223Z,967.37
2017-05-16T07:09:13.379Z,967.36
2017-05-16T07:10:11.655Z,967.40
2017-05-16T07:11:13.750Z,967.37
2017-05-16T07:12:13.585Z,967.40
2017-05-16T07:13:18.313Z,967.39
2017-05-16T07:14:13.449Z,967.40
2017-05-16T07:15:14.509Z,967.45
2017-05-16T07:16:14.075Z,967.40
2017-05-16T07:17:13.853Z,967.43
2017-05-16T07:18:13.186Z,967.42
2017-05-16T07:19:13.962Z,967.40
2017-05-16T07:20:13.410Z,967.42
2017-05-16T07:21:13.900Z,967.40
2017-05-16T07:22:14.369Z,967.43
2017-05-16T07:23:13.871Z,967.44
2017-05-16T07:24:15.022Z,967.39
2017-05-16T07:25:14.015Z,967.40
2017-05-16T07:26:11.140Z,967.37
2017-05-16T07:27:14.021Z,967.40
2017-05-16T07:28:14.036Z,967.41
2017-05-16T07:29:16.963Z,967.41
2017-05-16T07:30:14.721Z,967.43
2017-05-16T07:31:13.144Z,967.41
2017-05-16T07:32:13.181Z,967.43
2017-05-16T07:33:13.517Z,967.40
2017-05-16T07:34:14.654Z,967.47
2017-05-16T07:35:13.445Z,967.44
2017-05-16T07:36:14.962Z,967.45
2017-05-16T07:37:14.051Z,967.45
2017-05-16T07:38:14.296Z,967.43
2017-05-16T07:39:14.411Z,967.46
2017-05-16T07:40:14.724Z,967.35
2017-05-16T07:41:13.082Z,967.43
2017-05-16T07:42:13.649Z,967.37
2017-05-16T07:43:13.102Z,967.37
2017-05-16T07:44:14.169Z,967.36
2017-05-16T07:45:13.695Z,967.33
2017-05-16T07:46:13.367Z,967.37
2017-05-16T07:47:17.514Z,967.34
2017-05-16T07:48:13.991Z,967.36
2017-05-16T07:49:10.691Z,967.35
2017-05-16T07:50:13.911Z,967.34
2017-05-16T07:51:11.802Z,967.34
2017-05-16T07:52:15.144Z,967.28
2017-05-16T07:53:14.064Z,967.30
2017-05-16T07:54:11.857Z,967.27
2017-05-16T07:55:13.670Z,967.34
2017-05-16T07:56:13.263Z,967.27
2017-05-16T07:57:13.344Z,967.27
2017-05-16T07:58:11.908Z,967.27
2017-05-16T07:59:15.349Z,967.27
2017-05-16T08:00:10.451Z,967.27
2017-05-16T08:01:13.704Z,967.27
2017-05-16T08:02:13.928Z,967.28
2017-05-16T08:03:10.105Z,967.30
2017-05-16T08:04:14.388Z,967.28
2017-05-16T08:05:13.141Z,967.34
2017-05-16T08:06:13.287Z,967.29
2017-05-16T08:07:13.416Z,967.33
2017-05-16T08:08:13.633Z,967.26
2017-05-16T08:09:13.043Z,967.32
2017-05-16T08:10:13.594Z,967.32
2017-05-16T08:11:13.938Z,967.30
2017-05-16T08:12:13.537Z,967.30
2017-05-16T08:13:14.422Z,967.32
2017-05-16T08:14:14.773Z,967.33
2017-05-16T08:15:12.918Z,967.34
2017-05-16T08:16:13.386Z,967.32
2017-05-16T08:17:15.227Z,967.35
2017-05-16T08:18:16.134Z,967.32
2017-05-16T08:19:13.620Z,967.28
2017-05-16T08:20:13.975Z,967.27
2017-05-16T08:21:16.019Z,967.31
2017-05-16T08:22:13.634Z,967.30
2017-05-16T08:23:15.111Z,967.30
2017-05-16T08:24:13.618Z,967.26
2017-05-16T08:25:13.596Z,967.25
2017-05-16T08:26:13.957Z,967.29
2017-05-16T08:27:14.597Z,967.27
2017-05-16T08:28:13.527Z,967.30
2017-05-16T08:29:16.053Z,967.27
2017-05-16T08:30:13.864Z,967.30
2017-05-16T08:31:13.346Z,967.31
2017-05-16T08:32:13.720Z,967.26
2017-05-16T08:33:10.886Z,967.26
2017-05-16T08:34:15.226Z,967.29
2017-05-16T08:35:14.161Z,967.25
2017-05-16T08:36:13.404Z,967.21
2017-05-16T08:37:13.798Z,967.27
2017-05-16T08:38:13.318Z,967.23
2017-05-16T08:39:14.032Z,967.26
2017-05-16T08:40:13.964Z,967.25
2017-05-16T08:41:13.369Z,967.20
2017-05-16T08:42:15.040Z,967.18
2017-05-16T08:43:16.558Z,967.21
2017-05-16T08:44:14.424Z,967.21
2017-05-16T08:45:13.059Z,967.23
2017-05-16T08:46:13.712Z,967.23
2017-05-16T08:47:13.467Z,967.25
2017-05-16T08:48:13.958Z,967.25
2017-05-16T08:49:13.563Z,967.20
2017-05-16T08:50:11.800Z,967.25
2017-05-16T08:51:13.781Z,967.21
2017-05-16T08:52:13.051Z,967.16
2017-05-16T08:53:14.635Z,967.19
2017-05-16T08:54:13.188Z,967.24
2017-05-16T08:55:13.623Z,967.22
2017-05-16T08:56:13.391Z,967.18
2017-05-16T08:57:13.957Z,967.21
2017-05-16T08:58:09.885Z,967.16
2017-05-16T08:59:14.788Z,967.15
2017-05-16T09:00:13.274Z,967.17
2017-05-16T09:01:13.715Z,967.17
2017-05-16T09:02:13.655Z,967.14
2017-05-16T09:03:13.668Z,967.15
2017-05-16T09:04:12.891Z,967.12
2017-05-16T09:05:13.207Z,967.13
2017-05-16T09:06:11.522Z,967.11
2017-05-16T09:07:13.806Z,967.14
2017-05-16T09:08:13.477Z,967.13
2017-05-16T09:09:14.037Z,967.12
2017-05-16T09:10:13.327Z,967.11
2017-05-16T09:11:14.160Z,967.12
2017-05-16T09:12:13.709Z,967.14
2017-05-16T09:13:13.354Z,967.08
2017-05-16T09:14:13.644Z,967.10
2017-05-16T09:15:14.002Z,967.16
2017-05-16T09:16:13.483Z,967.11
2017-05-16T09:17:14.155Z,967.10
2017-05-16T09:18:13.376Z,967.13
2017-05-16T09:19:14.985Z,967.13
2017-05-16T09:20:14.273Z,967.10
2017-05-16T09:21:15.165Z,967.09
2017-05-16T09:22:12.899Z,967.08
2017-05-16T09:23:14.522Z,967.05
2017-05-16T09:24:14.007Z,967.02
2017-05-16T09:25:13.278Z,967.04
2017-05-16T09:26:13.583Z,967.02
2017-05-16T09:27:13.884Z,967.06
2017-05-16T09:28:13.866Z,967.05
2017-05-16T09:29:13.952Z,967.05
2017-05-16T09:30:13.392Z,967.02
2017-05-16T09:31:13.666Z,967.05
2017-05-16T09:32:12.985Z,967.01
2017-05-16T09:33:13.473Z,966.99
2017-05-16T09:34:13.704Z,967.01
2017-05-16T09:35:10.578Z,967.05
2017-05-16T09:36:13.466Z,967.01
2017-05-16T09:37:18.013Z,967.02
2017-05-16T09:38:14.317Z,967.02
2017-05-16T09:39:13.823Z,967.00
2017-05-16T09:40:13.441Z,966.98
2017-05-16T09:41:15.125Z,966.98
2017-05-16T09:42:14.466Z,967.04
2017-05-16T09:43:13.280Z,966.98
2017-05-16T09:44:16.169Z,966.98
2017-05-16T09:45:13.277Z,966.97
2017-05-16T09:46:14.513Z,966.93
2017-05-16T09:47:14.014Z,966.98
2017-05-16T09:48:13.233Z,966.90
2017-05-16T09:49:13.475Z,966.92
2017-05-16T09:50:13.733Z,966.90
2017-05-16T09:51:13.409Z,966.91
2017-05-16T09:52:14.091Z,966.95
2017-05-16T09:53:13.737Z,967.01
2017-05-16T09:54:11.401Z,966.98
2017-05-16T09:55:13.303Z,966.96
2017-05-16T09:56:13.809Z,966.95
2017-05-16T09:57:13.977Z,966.91
2017-05-16T09:58:17.363Z,966.92
2017-05-16T09:59:14.871Z,966.97
2017-05-16T10:00:14.223Z,966.95
2017-05-16T10:01:13.919Z,966.96
2017-05-16T10:02:14.141Z,966.96
2017-05-16T10:03:13.939Z,966.92
2017-05-16T10:04:15.213Z,966.93
2017-05-16T10:05:16.816Z,966.90
2017-05-16T10:06:15.448Z,966.90
2017-05-16T10:07:13.863Z,966.88
2017-05-16T10:08:15.498Z,966.87
2017-05-16T10:09:10.625Z,966.89
2017-05-16T10:10:15.241Z,966.82
2017-05-16T10:11:15.277Z,966.85
2017-05-16T10:12:11.975Z,966.88
2017-05-16T10:13:14.890Z,966.90
2017-05-16T10:14:14.470Z,966.86
2017-05-16T10:15:10.176Z,966.87
2017-05-16T10:16:14.245Z,966.82
2017-05-16T10:17:14.993Z,966.79
2017-05-16T10:18:14.880Z,966.72
2017-05-16T10:19:16.904Z,966.76
2017-05-16T10:20:14.041Z,966.75
2017-05-16T10:21:16.747Z,966.74
2017-05-16T10:22:13.944Z,966.75
2017-05-16T10:23:14.389Z,966.73
2017-05-16T10:24:15.014Z,966.71
2017-05-16T10:25:14.615Z,966.74
2017-05-16T10:26:19.198Z,966.72
2017-05-16T10:27:14.286Z,966.71
2017-05-16T10:28:14.878Z,966.69
2017-05-16T10:29:15.208Z,966.68
2017-05-16T10:30:16.118Z,966.64
2017-05-16T10:31:24.077Z,966.69
2017-05-16T10:32:11.242Z,966.67
2017-05-16T10:33:14.296Z,966.66
2017-05-16T10:34:11.162Z,966.68
2017-05-16T10:36:14.382Z,966.63
2017-05-16T10:36:17.354Z,966.61
2017-05-16T10:37:15.292Z,966.62
2017-05-16T10:38:11.677Z,966.58
2017-05-16T10:39:15.289Z,966.63
2017-05-16T10:40:13.735Z,966.57
2017-05-16T10:41:13.969Z,966.59
2017-05-16T10:42:14.221Z,966.60
2017-05-16T10:43:15.340Z,966.63
2017-05-16T10:44:14.994Z,966.62
2017-05-16T10:45:14.208Z,966.64
2017-05-16T10:46:15.249Z,966.63
2017-05-16T10:47:15.268Z,966.59
2017-05-16T10:48:15.347Z,966.56
2017-05-16T10:49:14.521Z,966.58
2017-05-16T10:50:15.461Z,966.59
2017-05-16T10:51:14.936Z,966.55
2017-05-16T10:52:14.911Z,966.60
2017-05-16T10:53:14.125Z,966.57
2017-05-16T10:54:14.841Z,966.60
2017-05-16T10:55:13.909Z,966.50
2017-05-16T10:56:15.528Z,966.57
2017-05-16T10:57:15.695Z,966.54
2017-05-16T10:58:13.533Z,966.51
2017-05-16T10:59:11.990Z,966.50
2017-05-16T11:00:14.131Z,966.54
2017-05-16T11:01:15.584Z,966.52
2017-05-16T11:02:15.219Z,966.44
2017-05-16T11:03:15.910Z,966.46
2017-05-16T11:04:14.319Z,966.44
2017-05-16T11:05:16.588Z,966.44
2017-05-16T11:06:14.017Z,966.43
2017-05-16T11:07:14.325Z,966.43
2017-05-16T11:08:14.569Z,966.44
2017-05-16T11:09:12.808Z,966.40
2017-05-16T11:10:14.318Z,966.44
2017-05-16T11:11:14.954Z,966.41
2017-05-16T11:12:14.057Z,966.36
2017-05-16T11:13:16.030Z,966.37
2017-05-16T11:14:14.552Z,966.39
2017-05-16T11:15:15.831Z,966.38
2017-05-16T11:16:16.206Z,966.39
2017-05-16T11:17:16.316Z,966.43
2017-05-16T11:18:16.448Z,966.36
2017-05-16T11:19:15.328Z,966.36
2017-05-16T11:20:15.056Z,966.35
2017-05-16T11:21:14.160Z,966.33
2017-05-16T11:22:14.977Z,966.36
2017-05-16T11:23:15.278Z,966.31
2017-05-16T11:24:15.958Z,966.31
2017-05-16T11:25:15.021Z,966.29
